Accueil
METAR-TAF:

METAR-TAF

Aéroports :

Saint-Moritz, Suisse

Aérodrome de Samedan-Engadin

latitude: 46-32-03N, longitude: 9-53-03E, altitude: 1707 m

Observation

Le bulletin a été fait il y a 16 minutes, à 00:20 UTC
Vent 5 kt de nord, variant entre nord/nord-ouest et est
Température -7°C
Humidité 86%
Pression 1006 hPa
Visibilité: 8000 m
Quelques nuages à une hauteur de 6000 ft

METAR: LSZS 240020Z AUTO 36005KT 330V100 8000 FEW060 M07/M09 Q1006

Heure: 01:36 (00:36 UTC)

Prévision

Le bulletin a été fait il y a 10 heures et 11 minutes, à 14:25 UTC
Prévision valable du 23 à 15 UTC au 23 à 24 UTC
Vent 11 kt de nord/nord-est
Visibilité 10 km ou plus
Quelques nuages à une hauteur de 7000 ft
Probabilité 30% :
Temporairement
du 23 à 15 UTC au 23 à 20 UTC
Vent 15 kt de nord/nord-est avec des rafales jusqu'à 25 kt

TAF: LSZS 231425Z 2315/2324 02011KT 9999 FEW070 TX00/2315Z PROB30 TEMPO 2315/2320 02015G25KT

Observations et prévisions météorologiques de plus de 4000 aéroports (messages METAR et TAF).

Les stations disponibles sont représentées par des disques jaunes et rouges sur la carte.

Passer la souris dessus pour voir le nom de la station.

Cliquer dessus pour voir les observations et prévisions météorologiques.

Pour changer de carte: cliquez sur les boutons verts avec une croix noire pour zoomer, sur le bouton vert avec un tiret pour effectuer un zoom arrière, ou sur les flèches vertes pour les cartes adjacentes.


METAR-TAF: